Time;durP1;ratioP1;P1;durP2;ratioP2;P2;SDS_P1;SDS_P2;PMS_P1;PMS_P2;Temp;Humidity;BMP_temperature;BMP_pressure;BME280_temperature;BME280_humidity;BME280_pressure;Samples;Min_cycle;Max_cycle;Signal;HPM_P1;HPM_P2
2022/10/25 00:02:18;;;;;;;15.93;8.65;;;;;;;18.12;62.62;99609.41;4437286;32;34323;-66
2022/10/25 00:04:46;;;;;;;22.58;11.45;;;;;;;18.13;62.61;99619.22;4424566;32;32699;-65
2022/10/25 00:07:14;;;;;;;19.08;9.82;;;;;;;18.08;62.82;99628.88;4441466;32;33582;-65
2022/10/25 00:09:41;;;;;;;16.00;9.10;;;;;;;18.13;62.60;99632.75;4429770;32;33429;-65
2022/10/25 00:12:09;;;;;;;23.15;11.63;;;;;;;18.10;62.84;99643.94;4443742;32;35386;-64
2022/10/25 00:14:37;;;;;;;22.20;12.48;;;;;;;18.12;62.94;99652.75;4442908;32;34429;-66
2022/10/25 00:17:04;;;;;;;17.42;9.40;;;;;;;18.19;62.76;99650.22;4426339;32;32049;-68
2022/10/25 00:19:32;;;;;;;21.35;11.85;;;;;;;18.20;62.88;99660.03;4440692;32;32358;-66
2022/10/25 00:21:59;;;;;;;18.20;12.75;;;;;;;18.22;62.97;99657.16;4439936;32;33618;-65
2022/10/25 00:24:27;;;;;;;25.00;13.85;;;;;;;18.21;63.06;99648.22;4441619;32;33941;-63
2022/10/25 00:26:55;;;;;;;21.27;11.23;;;;;;;18.24;63.15;99653.28;4441709;32;32696;-64
2022/10/25 00:29:22;;;;;;;21.92;13.82;;;;;;;18.22;63.27;99644.47;4441484;32;35071;-62
2022/10/25 00:31:55;;;;;;;27.13;14.70;;;;;;;18.29;63.14;99652.78;4440771;32;34078;-61
2022/10/25 00:34:22;;;;;;;30.35;15.77;;;;;;;18.27;63.25;99650.25;4443772;32;33697;-64
2022/10/25 00:36:50;;;;;;;27.48;11.82;;;;;;;18.32;63.25;99647.88;4440473;32;34377;-60
2022/10/25 00:39:18;;;;;;;22.60;11.00;;;;;;;18.27;63.36;99652.97;4439436;32;130515;-62
2022/10/25 00:41:45;;;;;;;19.20;9.25;;;;;;;18.05;64.42;99640.88;4438762;32;34955;-65
2022/10/25 00:44:35;;;;;;;23.65;15.32;;;;;;;18.21;63.83;99640.06;4437886;32;33804;-64
2022/10/25 00:47:09;;;;;;;19.10;11.77;;;;;;;18.31;63.67;99646.19;4443919;32;34621;-63
2022/10/25 00:49:37;;;;;;;25.25;13.68;;;;;;;18.35;63.45;99658.37;4431832;32;34068;-64
2022/10/25 00:52:05;;;;;;;21.67;10.90;;;;;;;18.21;63.97;99660.91;4420717;32;33767;-66
2022/10/25 00:54:36;;;;;;;22.77;13.23;;;;;;;18.16;64.26;99653.25;4438444;32;34876;-63
2022/10/25 00:57:10;;;;;;;28.23;15.70;;;;;;;18.02;64.77;99662.88;4426685;32;32394;-65
2022/10/25 00:59:38;;;;;;;40.77;15.13;;;;;;;18.06;64.85;99660.69;4430476;32;34036;-63
2022/10/25 01:02:06;;;;;;;21.58;13.00;;;;;;;17.66;66.33;99673.87;4440579;32;34414;-63
2022/10/25 01:04:33;;;;;;;22.23;11.45;;;;;;;17.72;65.71;99677.81;4438065;32;34108;-63
2022/10/25 01:07:01;;;;;;;25.42;12.95;;;;;;;17.72;66.14;99680.50;4442287;32;32949;-63
2022/10/25 01:09:31;;;;;;;16.73;10.85;;;;;;;17.87;65.45;99675.34;4442275;32;33914;-64
2022/10/25 01:11:58;;;;;;;28.98;17.48;;;;;;;17.97;65.21;99680.63;4428454;32;33285;-63
2022/10/25 01:14:27;;;;;;;23.12;13.90;;;;;;;17.69;66.12;99684.38;4441258;32;33760;-65
2022/10/25 01:17:14;;;;;;;19.60;12.30;;;;;;;17.83;65.53;99674.81;4442865;32;33237;-66
2022/10/25 01:20:08;;;;;;;26.85;14.05;;;;;;;17.73;66.03;99676.78;4443322;32;34971;-66
2022/10/25 01:22:44;;;;;;;17.67;11.93;;;;;;;17.79;65.84;99662.62;4443587;32;32709;-64
2022/10/25 01:25:29;;;;;;;30.95;16.83;;;;;;;17.58;66.87;99662.16;4445185;32;36016;-66
2022/10/25 01:28:03;;;;;;;19.02;12.25;;;;;;;17.72;66.18;99666.09;4439575;32;33200;-65
2022/10/25 01:31:08;;;;;;;25.47;12.43;;;;;;;17.76;65.86;99662.09;4440385;32;34395;-64
2022/10/25 01:33:39;;;;;;;32.22;15.40;;;;;;;17.86;65.52;99652.00;4440756;32;34793;-64
2022/10/25 01:36:17;;;;;;;23.48;11.23;;;;;;;17.77;65.94;99655.69;4446643;32;33609;-63
2022/10/25 01:38:59;;;;;;;26.87;14.87;;;;;;;17.58;66.83;99657.59;4441304;32;33637;-64
2022/10/25 01:41:50;;;;;;;23.20;14.40;;;;;;;17.77;66.18;99655.69;4441883;32;34014;-65
2022/10/25 01:44:37;;;;;;;36.60;12.37;;;;;;;17.43;67.51;99657.37;4452460;32;32634;-66
2022/10/25 01:47:13;;;;;;;20.40;10.77;;;;;;;17.43;68.03;99654.66;4446140;32;34453;-64
2022/10/25 01:49:46;;;;;;;26.17;14.23;;;;;;;17.42;68.46;99657.50;4425377;32;33561;-65
2022/10/25 01:52:17;;;;;;;17.73;9.50;;;;;;;17.61;67.80;99657.25;4436314;32;34439;-65
2022/10/25 01:54:44;;;;;;;17.92;10.85;;;;;;;17.67;67.83;99648.50;4440172;32;35336;-66
2022/10/25 01:57:21;;;;;;;21.35;11.52;;;;;;;17.11;70.06;99654.44;4439934;32;32795;-66
2022/10/25 02:00:00;;;;;;;19.98;10.60;;;;;;;17.16;70.04;99647.53;4440954;32;33376;-64
2022/10/25 02:02:32;;;;;;;18.75;10.75;;;;;;;17.44;69.38;99648.22;4437760;32;34913;-66
2022/10/25 02:05:13;;;;;;;19.58;9.65;;;;;;;17.90;67.49;99634.41;4437743;32;33982;-65
2022/10/25 02:07:42;;;;;;;15.18;9.18;;;;;;;17.97;67.14;99640.00;4436394;32;34005;-64
2022/10/25 02:10:35;;;;;;;24.50;13.40;;;;;;;17.95;67.38;99644.75;4439848;32;33292;-67
2022/10/25 02:13:08;;;;;;;16.77;7.87;;;;;;;18.06;66.86;99649.84;4439757;32;31984;-65
2022/10/25 02:15:39;;;;;;;13.48;7.72;;;;;;;17.89;67.52;99647.09;4441988;32;33838;-66
2022/10/25 02:18:13;;;;;;;11.57;7.82;;;;;;;18.01;66.71;99646.78;4437608;32;33694;-66
2022/10/25 02:20:42;;;;;;;24.15;13.00;;;;;;;18.22;66.07;99655.31;4437857;32;33465;-65
2022/10/25 02:23:14;;;;;;;14.70;7.85;;;;;;;18.05;66.44;99656.28;4435571;32;33883;-64
2022/10/25 02:25:42;;;;;;;14.80;9.90;;;;;;;17.86;67.41;99646.59;4438626;32;33978;-65
2022/10/25 02:28:11;;;;;;;16.50;10.05;;;;;;;17.59;68.63;99655.72;4445210;32;33591;-65
2022/10/25 02:30:42;;;;;;;13.82;7.97;;;;;;;17.83;68.11;99636.91;4438641;32;32737;-66
2022/10/25 02:33:10;;;;;;;17.35;9.32;;;;;;;17.61;68.93;99635.63;4444896;32;33206;-64
2022/10/25 02:35:38;;;;;;;13.02;7.37;;;;;;;17.43;69.83;99637.56;4448109;32;33662;-63
2022/10/25 02:38:06;;;;;;;13.57;8.63;;;;;;;17.87;68.35;99635.56;4432820;32;32940;-65
2022/10/25 02:40:33;;;;;;;12.75;7.50;;;;;;;17.85;68.44;99632.19;4443912;32;34522;-64
2022/10/25 02:43:01;;;;;;;12.95;7.82;;;;;;;17.68;68.54;99633.94;4441046;32;32374;-62
2022/10/25 02:45:29;;;;;;;18.25;7.60;;;;;;;17.69;68.91;99632.12;4445841;32;33947;-65
2022/10/25 02:47:56;;;;;;;12.00;6.97;;;;;;;17.82;68.24;99642.50;4451691;32;32226;-64
2022/10/25 02:50:23;;;;;;;18.67;9.02;;;;;;;17.27;70.12;99651.88;4449913;32;33441;-64
2022/10/25 02:52:51;;;;;;;11.02;6.90;;;;;;;17.33;70.32;99656.59;4452274;32;33969;-64
2022/10/25 02:55:18;;;;;;;7.20;4.85;;;;;;;16.68;73.14;99653.41;4451818;32;35586;-62
2022/10/25 02:57:46;;;;;;;10.65;6.87;;;;;;;16.82;73.09;99652.91;4445471;32;34338;-64
2022/10/25 03:00:14;;;;;;;13.93;6.95;;;;;;;17.06;72.59;99656.78;4447909;32;33032;-63
2022/10/25 03:02:41;;;;;;;10.30;5.75;;;;;;;16.42;75.63;99661.47;4440532;32;33571;-64
2022/10/25 03:05:09;;;;;;;7.75;4.62;;;;;;;16.58;75.24;99653.50;4447786;32;33779;-62
2022/10/25 03:07:37;;;;;;;16.95;8.52;;;;;;;16.95;73.89;99655.16;4449017;32;34900;-64
2022/10/25 03:10:05;;;;;;;9.38;6.03;;;;;;;16.57;74.99;99659.91;4448209;32;33134;-63
2022/10/25 03:12:32;;;;;;;18.67;6.40;;;;;;;17.25;72.03;99656.56;4437032;32;33499;-64
2022/10/25 03:15:00;;;;;;;12.88;5.95;;;;;;;17.23;71.95;99666.69;4442965;32;34817;-64
2022/10/25 03:17:27;;;;;;;10.35;6.10;;;;;;;17.39;71.37;99665.94;4445792;32;34789;-62
2022/10/25 03:19:55;;;;;;;22.08;7.32;;;;;;;17.48;70.76;99674.97;4447751;32;35105;-62
2022/10/25 03:22:22;;;;;;;8.32;5.55;;;;;;;17.26;71.46;99657.41;4448704;32;33561;-65
2022/10/25 03:24:50;;;;;;;12.02;6.37;;;;;;;17.40;70.90;99656.84;4443249;32;33933;-64
2022/10/25 03:27:17;;;;;;;13.43;6.78;;;;;;;16.83;73.10;99664.56;4447478;32;33923;-65
2022/10/25 03:29:45;;;;;;;11.93;6.18;;;;;;;16.85;72.63;99663.38;4449019;32;34710;-64
2022/10/25 03:32:12;;;;;;;10.68;6.03;;;;;;;17.18;71.73;99672.59;4446414;32;34644;-63
2022/10/25 03:34:40;;;;;;;13.32;6.60;;;;;;;17.08;71.56;99685.38;4441988;32;33545;-64
2022/10/25 03:37:07;;;;;;;6.75;4.53;;;;;;;16.48;74.16;99683.31;4444614;32;33735;-65
2022/10/25 03:39:35;;;;;;;13.32;7.43;;;;;;;16.61;73.87;99680.22;4440031;32;34179;-64
2022/10/25 03:42:02;;;;;;;9.63;5.53;;;;;;;16.89;72.72;99678.28;4444283;32;33797;-63
2022/10/25 03:44:30;;;;;;;9.10;5.12;;;;;;;16.50;74.38;99675.91;4445713;32;33187;-65
2022/10/25 03:46:58;;;;;;;11.68;8.10;;;;;;;16.67;73.09;99685.00;4444443;32;33571;-63
2022/10/25 03:49:25;;;;;;;11.12;5.12;;;;;;;16.71;72.66;99686.38;4442010;32;31748;-65
2022/10/25 03:51:53;;;;;;;12.43;6.72;;;;;;;17.32;70.39;99670.31;4445110;32;32224;-65
2022/10/25 03:54:26;;;;;;;8.68;5.97;;;;;;;17.19;70.39;99663.47;4442311;32;33958;-63
2022/10/25 03:56:56;;;;;;;13.93;7.35;;;;;;;16.87;71.95;99650.56;4446043;32;33340;-63
2022/10/25 03:59:23;;;;;;;8.00;5.43;;;;;;;16.77;72.58;99647.94;4443688;32;33429;-64
2022/10/25 04:01:51;;;;;;;13.35;7.47;;;;;;;17.06;71.31;99651.37;4447948;32;33433;-62
2022/10/25 04:04:19;;;;;;;19.62;6.78;;;;;;;16.87;71.53;99644.31;4443276;32;33987;-65
2022/10/25 04:06:46;;;;;;;10.00;4.82;;;;;;;16.75;72.44;99646.41;4445183;32;33931;-64
2022/10/25 04:09:14;;;;;;;5.37;3.37;;;;;;;16.81;72.57;99647.62;4441916;32;33594;-63
2022/10/25 04:11:44;;;;;;;7.82;4.82;;;;;;;17.06;71.40;99644.09;4434338;32;32976;-63
2022/10/25 04:14:12;;;;;;;7.40;4.25;;;;;;;16.92;72.07;99658.22;4442324;32;35007;-64
2022/10/25 04:16:39;;;;;;;5.80;3.85;;;;;;;16.69;72.94;99661.38;4440703;32;34065;-64
2022/10/25 04:19:07;;;;;;;7.60;5.18;;;;;;;16.93;71.95;99654.50;4434017;32;34741;-64
2022/10/25 04:21:34;;;;;;;8.05;4.80;;;;;;;16.77;72.76;99656.06;4445421;32;33598;-62
2022/10/25 04:24:02;;;;;;;11.68;6.00;;;;;;;17.19;70.76;99649.09;4447213;32;35191;-64
2022/10/25 04:26:33;;;;;;;8.93;5.87;;;;;;;17.45;69.85;99659.91;4445567;32;33712;-64
2022/10/25 04:29:01;;;;;;;8.73;4.03;;;;;;;17.15;70.86;99664.78;4443775;32;34069;-68
2022/10/25 04:31:29;;;;;;;8.68;4.95;;;;;;;17.27;70.26;99659.97;4443469;32;33257;-63
2022/10/25 04:33:57;;;;;;;8.73;5.80;;;;;;;17.34;69.70;99662.88;4444758;32;32768;-64
2022/10/25 04:36:27;;;;;;;9.88;5.55;;;;;;;17.44;69.46;99659.06;4443688;32;34177;-65
2022/10/25 04:38:55;;;;;;;8.27;5.30;;;;;;;17.68;68.41;99660.16;4447274;32;33317;-65
2022/10/25 04:41:23;;;;;;;10.75;5.75;;;;;;;17.84;67.84;99656.72;4443434;32;33869;-65
2022/10/25 04:43:51;;;;;;;10.38;6.00;;;;;;;17.68;68.25;99671.84;4444400;32;34301;-64
2022/10/25 04:46:19;;;;;;;6.60;4.35;;;;;;;17.46;68.59;99669.69;4446191;32;32684;-64
2022/10/25 04:48:47;;;;;;;10.88;5.40;;;;;;;17.63;68.56;99667.94;4440109;32;33110;-64
2022/10/25 04:51:14;;;;;;;8.63;5.47;;;;;;;17.53;69.07;99664.47;4444001;32;32486;-65
2022/10/25 04:53:42;;;;;;;8.10;5.62;;;;;;;17.49;69.00;99660.41;4443556;32;34200;-64
2022/10/25 04:56:11;;;;;;;11.88;5.18;;;;;;;17.71;68.33;99665.25;4444701;32;34652;-65
2022/10/25 04:58:39;;;;;;;7.82;4.90;;;;;;;17.89;67.33;99671.47;4439800;32;33318;-67
2022/10/25 05:01:10;;;;;;;6.50;3.75;;;;;;;17.57;68.55;99666.72;4434584;32;32317;-65
2022/10/25 05:03:38;;;;;;;7.12;4.80;;;;;;;17.59;68.61;99680.94;4447991;32;32760;-65
2022/10/25 05:06:05;;;;;;;6.65;4.20;;;;;;;17.14;70.04;99676.62;4432653;32;34139;-63
2022/10/25 05:08:33;;;;;;;13.20;7.07;;;;;;;17.31;69.56;99671.31;4442164;32;32445;-67
2022/10/25 05:11:01;;;;;;;7.22;4.65;;;;;;;17.34;69.15;99673.72;4446356;32;33796;-65
2022/10/25 05:13:31;;;;;;;8.48;5.18;;;;;;;17.34;69.26;99676.41;4444531;32;33986;-65
2022/10/25 05:15:59;;;;;;;8.57;4.30;;;;;;;17.35;69.18;99668.13;4450093;32;33788;-65
2022/10/25 05:18:28;;;;;;;9.77;6.00;;;;;;;17.35;68.64;99665.41;4445819;32;34032;-64
2022/10/25 05:21:02;;;;;;;7.12;3.78;;;;;;;17.27;68.96;99669.91;4432060;32;34199;-65
2022/10/25 05:23:31;;;;;;;;;;;;;;;17.39;68.80;99674.06;4450588;32;33634;-65
2022/10/25 05:26:02;;;;;;;5.57;3.33;;;;;;;17.65;67.58;99676.72;4445541;32;34808;-64
2022/10/25 05:28:30;;;;;;;5.10;3.62;;;;;;;17.83;66.73;99684.81;4444311;32;32087;-63
2022/10/25 05:31:05;;;;;;;8.43;5.28;;;;;;;17.76;66.92;99699.97;4445340;32;34559;-65
2022/10/25 05:33:33;;;;;;;8.60;5.13;;;;;;;17.68;66.99;99704.31;4447790;32;32942;-66
2022/10/25 05:36:02;;;;;;;4.12;2.50;;;;;;;17.51;67.61;99710.66;4449269;32;33928;-65
2022/10/25 05:38:29;;;;;;;6.32;2.58;;;;;;;17.34;68.33;99728.66;4449161;32;34622;-63
2022/10/25 05:41:03;;;;;;;4.95;3.53;;;;;;;17.37;67.76;99727.50;4445297;32;33684;-66
2022/10/25 05:43:31;;;;;;;6.28;3.72;;;;;;;17.54;67.56;99737.41;4445496;32;34967;-64
2022/10/25 05:46:09;;;;;;;10.98;4.03;;;;;;;17.37;68.03;99741.03;4445727;32;32618;-64
2022/10/25 05:48:37;;;;;;;6.05;4.25;;;;;;;17.57;67.21;99756.03;4449597;32;32155;-65
2022/10/25 05:51:23;;;;;;;7.43;5.03;;;;;;;17.46;67.54;99757.16;4442833;32;34982;-64
2022/10/25 05:54:10;;;;;;;8.43;4.65;;;;;;;17.68;66.72;99774.69;4435629;32;34848;-65
2022/10/25 05:56:38;;;;;;;9.05;6.62;;;;;;;17.17;68.84;99767.38;4448579;32;34834;-64
2022/10/25 05:59:11;;;;;;;11.93;7.18;;;;;;;17.41;67.93;99764.03;4448902;32;33266;-64
2022/10/25 06:01:40;;;;;;;9.48;5.95;;;;;;;17.84;66.36;99748.75;4446336;32;33963;-63
2022/10/25 06:04:08;;;;;;;9.23;5.15;;;;;;;17.75;66.57;99764.06;4435464;32;33956;-64
2022/10/25 06:06:37;;;;;;;9.00;5.22;;;;;;;17.76;66.49;99764.94;4445219;32;33967;-64
2022/10/25 06:09:06;;;;;;;12.98;6.07;;;;;;;17.33;67.82;99769.38;4444389;32;31976;-63
2022/10/25 06:11:34;;;;;;;16.62;5.43;;;;;;;17.64;66.94;99775.19;4436915;32;32451;-64
2022/10/25 06:14:01;;;;;;;9.00;6.37;;;;;;;17.68;66.64;99784.69;4444381;32;33736;-63
2022/10/25 06:16:29;;;;;;;11.10;7.35;;;;;;;17.53;67.14;99780.84;4448931;32;32624;-64
2022/10/25 06:18:57;;;;;;;12.13;5.87;;;;;;;17.82;66.16;99791.41;4447769;32;32220;-64
2022/10/25 06:21:27;;;;;;;9.32;6.03;;;;;;;17.64;66.69;99789.56;4448243;32;33534;-66
2022/10/25 06:23:55;;;;;;;24.48;6.82;;;;;;;17.96;65.41;99806.22;4443061;32;34258;-65
2022/10/25 06:26:25;;;;;;;9.55;6.05;;;;;;;17.83;65.82;99801.22;4446064;32;33500;-65
2022/10/25 06:28:55;;;;;;;13.62;8.13;;;;;;;17.65;66.23;99810.19;4446379;32;32108;-66
2022/10/25 06:31:23;;;;;;;11.85;6.78;;;;;;;18.01;65.25;99815.56;4448269;32;35020;-65
2022/10/25 06:33:51;;;;;;;15.20;5.62;;;;;;;17.98;65.34;99824.00;4449372;32;32720;-65
2022/10/25 06:36:21;;;;;;;7.65;5.32;;;;;;;17.97;65.20;99824.16;4449657;32;35114;-65
2022/10/25 06:38:49;;;;;;;15.32;7.65;;;;;;;18.03;65.05;99810.81;4444784;32;32859;-64
2022/10/25 06:41:20;;;;;;;9.85;5.43;;;;;;;18.01;65.24;99818.25;4447572;32;34673;-63
2022/10/25 06:43:48;;;;;;;10.52;5.65;;;;;;;17.90;65.37;99807.69;4444488;32;33497;-64
2022/10/25 06:46:21;;;;;;;7.53;5.60;;;;;;;18.27;64.25;99810.09;4449336;32;34238;-64
2022/10/25 06:48:50;;;;;;;9.35;6.18;;;;;;;18.38;63.79;99812.50;4439931;32;32262;-63
2022/10/25 06:51:18;;;;;;;7.00;4.72;;;;;;;18.35;64.04;99815.53;4449129;32;32237;-65
2022/10/25 06:53:46;;;;;;;8.15;4.07;;;;;;;18.27;64.29;99809.25;4448393;32;32553;-64
2022/10/25 06:56:13;;;;;;;11.07;5.28;;;;;;;18.50;63.65;99812.22;4449111;32;34004;-65
2022/10/25 06:58:41;;;;;;;6.55;4.20;;;;;;;18.34;63.78;99805.72;4444794;32;32308;-64
2022/10/25 07:01:11;;;;;;;6.37;3.97;;;;;;;18.32;63.70;99810.44;4441184;32;33651;-63
2022/10/25 07:03:40;;;;;;;8.48;5.12;;;;;;;18.36;63.59;99805.53;4444172;32;33680;-65
2022/10/25 07:06:10;;;;;;;7.22;4.47;;;;;;;18.52;63.08;99805.63;4448501;32;34975;-64
2022/10/25 07:08:39;;;;;;;7.30;4.32;;;;;;;18.56;62.87;99806.97;4444835;32;33220;-64
2022/10/25 07:11:13;;;;;;;4.00;2.85;;;;;;;18.67;62.59;99804.97;4438653;32;34077;-67
2022/10/25 07:13:40;;;;;;;7.70;3.37;;;;;;;18.57;62.94;99808.66;4442069;32;33859;-64
2022/10/25 07:16:10;;;;;;;5.45;3.45;;;;;;;18.48;63.07;99814.22;4446171;32;33479;-66
2022/10/25 07:18:38;;;;;;;7.78;4.32;;;;;;;18.58;62.63;99813.06;4446007;32;34353;-65
2022/10/25 07:21:09;;;;;;;8.70;5.20;;;;;;;18.44;62.90;99808.28;4445524;32;33849;-63
2022/10/25 07:23:41;;;;;;;7.10;4.50;;;;;;;18.53;62.70;99806.47;4445247;32;33700;-64
2022/10/25 07:26:14;;;;;;;5.45;3.47;;;;;;;18.38;63.18;99820.63;4448006;32;32675;-64
2022/10/25 07:28:43;;;;;;;4.90;3.00;;;;;;;18.32;63.54;99821.28;4443390;32;33376;-64
2022/10/25 07:31:12;;;;;;;5.60;3.78;;;;;;;18.27;63.51;99829.06;4446767;32;33951;-63
2022/10/25 07:33:40;;;;;;;8.90;4.82;;;;;;;18.12;63.87;99826.09;4447215;32;35700;-64
2022/10/25 07:36:08;;;;;;;5.93;3.80;;;;;;;18.38;63.17;99828.75;4445872;32;34204;-64
2022/10/25 07:38:38;;;;;;;3.47;2.40;;;;;;;18.09;64.17;99833.69;4443052;32;32243;-63
2022/10/25 07:41:06;;;;;;;4.62;2.60;;;;;;;18.03;64.21;99842.47;4447216;32;34823;-63
2022/10/25 07:43:34;;;;;;;9.95;2.05;;;;;;;18.34;63.02;99835.53;4448865;32;33923;-64
2022/10/25 07:46:02;;;;;;;6.32;2.65;;;;;;;18.40;62.81;99836.75;4441584;32;33560;-64
2022/10/25 07:48:29;;;;;;;3.35;2.42;;;;;;;18.19;63.45;99837.12;4447738;32;33326;-64
2022/10/25 07:51:01;;;;;;;6.75;3.42;;;;;;;18.17;63.72;99844.59;4445019;32;33705;-63
2022/10/25 07:53:29;;;;;;;6.30;4.35;;;;;;;17.72;65.49;99850.16;4448557;32;32894;-64
2022/10/25 07:55:56;;;;;;;5.00;2.87;;;;;;;17.81;65.25;99855.50;4442849;32;34947;-62
2022/10/25 07:58:24;;;;;;;22.83;3.05;;;;;;;18.02;64.69;99852.44;4449762;32;31819;-63
2022/10/25 08:00:52;;;;;;;8.00;4.05;;;;;;;18.14;64.40;99859.28;4441826;32;35548;-64
2022/10/25 08:03:19;;;;;;;4.03;2.47;;;;;;;18.43;63.44;99857.25;4450982;32;35230;-66
2022/10/25 08:05:47;;;;;;;5.47;3.72;;;;;;;18.53;63.24;99856.09;4442743;32;32510;-66
2022/10/25 08:08:14;;;;;;;8.57;4.05;;;;;;;18.37;63.38;99858.75;4434677;32;32998;-64
2022/10/25 08:10:43;;;;;;;5.25;3.00;;;;;;;18.48;63.16;99849.47;4445567;32;33735;-63
2022/10/25 08:13:10;;;;;;;6.22;3.90;;;;;;;18.82;61.89;99844.88;4442064;32;33785;-63
2022/10/25 08:15:39;;;;;;;5.75;3.08;;;;;;;18.80;61.84;99846.03;4450609;32;34628;-64
2022/10/25 08:18:08;;;;;;;6.80;4.57;;;;;;;18.44;63.51;99848.09;4442879;32;33196;-66
2022/10/25 08:20:36;;;;;;;6.28;4.50;;;;;;;18.87;62.15;99846.22;4450501;32;33656;-63
2022/10/25 08:23:24;;;;;;;10.02;3.95;;;;;;;18.79;62.19;99855.19;4448162;32;33956;-65
2022/10/25 08:25:51;;;;;;;7.85;5.03;;;;;;;18.70;62.40;99853.44;4449939;32;34093;-64
2022/10/25 08:28:19;;;;;;;4.20;3.15;;;;;;;18.72;62.17;99843.28;4448560;32;33674;-65
2022/10/25 08:30:47;;;;;;;5.07;3.28;;;;;;;18.80;62.00;99851.47;4451076;32;33661;-63
2022/10/25 08:33:14;;;;;;;8.00;5.62;;;;;;;18.71;62.49;99849.72;4450652;32;33960;-65
2022/10/25 08:35:41;;;;;;;7.55;4.50;;;;;;;18.78;62.19;99840.81;4447157;32;33978;-64
2022/10/25 08:38:09;;;;;;;9.43;5.37;;;;;;;18.75;62.24;99848.41;4446308;32;33297;-63
2022/10/25 08:41:05;;;;;;;7.80;4.72;;;;;;;18.74;62.44;99861.09;4452310;32;34085;-64
2022/10/25 08:43:52;;;;;;;7.47;4.53;;;;;;;18.66;62.85;99861.06;4450554;32;34069;-65
2022/10/25 08:46:24;;;;;;;6.72;4.03;;;;;;;18.82;62.47;99857.59;4451778;32;33886;-64
2022/10/25 08:49:06;;;;;;;6.03;3.47;;;;;;;18.55;63.45;99859.47;4434666;32;32089;-63
2022/10/25 08:51:37;;;;;;;8.60;4.62;;;;;;;18.56;63.62;99866.63;4447275;32;33891;-66
2022/10/25 08:54:24;;;;;;;7.53;3.78;;;;;;;19.00;62.40;99865.59;4426962;32;34025;-66
2022/10/25 08:57:14;;;;;;;8.10;4.28;;;;;;;19.06;62.39;99862.22;4451039;32;33913;-65
2022/10/25 08:59:47;;;;;;;8.82;4.80;;;;;;;18.62;63.76;99867.81;4441859;32;31359;-68
2022/10/25 09:02:22;;;;;;;7.00;4.70;;;;;;;18.78;63.44;99870.63;4451513;32;32592;-66
2022/10/25 09:04:50;;;;;;;8.40;4.28;;;;;;;18.87;63.17;99885.03;4436751;32;35029;-66
2022/10/25 09:07:22;;;;;;;6.10;4.10;;;;;;;18.79;63.24;99882.31;4449006;32;35613;-65
2022/10/25 09:10:13;;;;;;;6.68;4.40;;;;;;;18.93;62.80;99880.81;4443192;32;34476;-66
2022/10/25 09:12:51;;;;;;;8.82;4.68;;;;;;;18.91;62.78;99883.72;4427050;32;35083;-63
2022/10/25 09:15:50;;;;;;;5.68;3.87;;;;;;;19.13;62.08;99886.81;4446825;32;33518;-66
2022/10/25 09:18:18;;;;;;;5.12;3.65;;;;;;;19.08;62.37;99877.31;4433685;32;35176;-63
2022/10/25 09:20:50;;;;;;;5.93;4.10;;;;;;;19.02;62.29;99874.41;4448522;32;33090;-64
2022/10/25 09:23:28;;;;;;;9.05;5.45;;;;;;;19.13;61.88;99879.50;4435474;32;33975;-65
2022/10/25 09:26:26;;;;;;;8.70;3.53;;;;;;;19.05;62.20;99891.19;4449817;32;33756;-65
2022/10/25 09:29:03;;;;;;;6.35;4.28;;;;;;;19.08;62.18;99890.03;4426742;32;34670;-64
2022/10/25 09:31:36;;;;;;;6.05;3.58;;;;;;;18.95;62.20;99885.06;4449329;32;32136;-64
2022/10/25 09:34:07;;;;;;;7.07;3.72;;;;;;;19.17;61.85;99880.06;4448961;32;33900;-64
2022/10/25 09:36:39;;;;;;;7.85;3.47;;;;;;;18.55;64.09;99877.59;4435567;32;33206;-65
2022/10/25 09:39:18;;;;;;;5.00;3.83;;;;;;;18.41;64.42;99889.06;4440572;32;33505;-64
2022/10/25 09:41:49;;;;;;;2.92;2.30;;;;;;;18.87;62.70;99885.03;4450712;32;33199;-63
2022/10/25 09:44:39;;;;;;;3.90;2.90;;;;;;;19.08;61.71;99880.03;4451379;32;33619;-63
2022/10/25 09:47:16;;;;;;;6.00;3.50;;;;;;;19.16;61.45;99878.34;4448400;32;33905;-71
2022/10/25 09:50:16;;;;;;;5.78;3.65;;;;;;;18.98;61.92;99882.03;4446686;32;33830;-63
2022/10/25 09:52:44;;;;;;;3.95;2.28;;;;;;;19.33;60.95;99884.66;4439690;32;33296;-63
2022/10/25 09:55:28;;;;;;;5.43;3.72;;;;;;;19.33;60.99;99895.50;4449654;32;34823;-64
2022/10/25 09:57:56;;;;;;;5.22;3.78;;;;;;;19.06;61.65;99905.59;4434809;32;34117;-64
2022/10/25 10:00:24;;;;;;;7.68;4.62;;;;;;;18.90;62.18;99900.97;4449320;32;33989;-64
2022/10/25 10:02:52;;;;;;;9.43;3.05;;;;;;;18.57;63.42;99900.81;4446953;32;33541;-65
2022/10/25 10:05:20;;;;;;;6.22;3.17;;;;;;;19.03;62.42;99903.22;4450688;32;33358;-63
2022/10/25 10:07:49;;;;;;;6.90;3.42;;;;;;;18.88;63.23;99907.63;4449930;32;32928;-65
2022/10/25 10:10:21;;;;;;;4.93;3.35;;;;;;;18.79;63.15;99907.56;4452859;32;33088;-63
2022/10/25 10:12:54;;;;;;;10.93;4.90;;;;;;;18.46;64.40;99902.97;4442398;32;34492;-64
2022/10/25 10:15:26;;;;;;;4.40;3.08;;;;;;;17.67;67.35;99899.38;4438182;32;33643;-65
2022/10/25 10:18:24;;;;;;;3.65;2.40;;;;;;;18.32;65.12;99902.56;4449005;32;32760;-65
2022/10/25 10:21:10;;;;;;;8.65;3.70;;;;;;;18.53;64.52;99902.16;4447302;32;33676;-64
2022/10/25 10:23:46;;;;;;;;;;;;;;;19.00;62.35;99909.81;4450675;32;33572;-65
2022/10/25 10:26:17;;;;;;;;;;;;;;;19.23;61.67;99895.63;4440962;32;34621;-65
2022/10/25 10:28:49;;;;;;;8.38;4.82;;;;;;;19.06;62.26;99897.47;4444525;32;35529;-64
2022/10/25 10:31:17;;;;;;;12.77;5.72;;;;;;;18.92;63.06;99900.84;4437086;32;33812;-63
2022/10/25 10:33:49;;;;;;;6.80;4.65;;;;;;;19.23;61.84;99888.38;4449874;32;34605;-65
2022/10/25 10:36:22;;;;;;;7.95;4.95;;;;;;;19.42;61.51;99895.34;4449792;32;34755;-64
2022/10/25 10:38:50;;;;;;;5.32;3.55;;;;;;;19.21;62.19;99886.84;4449835;32;34097;-65
2022/10/25 10:41:28;;;;;;;6.40;3.37;;;;;;;19.57;60.98;99890.09;4450896;32;34437;-64
2022/10/25 10:44:11;;;;;;;6.68;3.83;;;;;;;19.19;62.00;99878.84;4450887;32;33151;-65
2022/10/25 10:46:46;;;;;;;5.43;3.53;;;;;;;19.29;61.58;99884.13;4438594;32;33852;-64
2022/10/25 10:49:14;;;;;;;6.40;2.77;;;;;;;18.65;63.29;99891.91;4436724;32;32534;-64
2022/10/25 10:51:43;;;;;;;7.53;4.50;;;;;;;19.05;61.95;99887.66;4452269;32;33523;-65
2022/10/25 10:54:26;;;;;;;6.05;3.05;;;;;;;19.25;61.24;99894.47;4450016;32;32990;-64
2022/10/25 10:56:58;;;;;;;3.87;2.70;;;;;;;19.22;61.24;99897.50;4448295;32;33192;-65
2022/10/25 10:59:33;;;;;;;3.37;2.58;;;;;;;19.09;61.98;99908.00;4438233;32;33699;-65
2022/10/25 11:02:19;;;;;;;3.00;2.08;;;;;;;18.97;62.66;99902.03;4451385;32;32983;-65
2022/10/25 11:04:51;;;;;;;6.40;3.87;;;;;;;19.05;62.19;99907.47;4439790;32;32332;-65
2022/10/25 11:07:32;;;;;;;5.00;3.17;;;;;;;19.29;61.06;99905.81;4441028;32;33960;-65
2022/10/25 11:10:15;;;;;;;10.05;2.97;;;;;;;19.02;62.14;99904.25;4437018;32;33961;-65
2022/10/25 11:12:43;;;;;;;8.23;3.37;;;;;;;18.65;63.00;99891.91;4451314;32;33245;-64
2022/10/25 11:15:12;;;;;;;4.32;2.37;;;;;;;18.98;62.87;99898.31;4449515;32;33533;-64
2022/10/25 11:17:52;;;;;;;5.07;3.10;;;;;;;18.76;63.92;99897.03;4435358;32;33405;-65
2022/10/25 11:20:29;;;;;;;9.15;3.72;;;;;;;19.02;62.61;99896.97;4445869;32;35051;-64
2022/10/25 11:23:12;;;;;;;3.92;2.42;;;;;;;19.43;60.96;99896.19;4413266;32;32574;-64
2022/10/25 11:25:51;;;;;;;8.95;3.42;;;;;;;19.40;61.67;99889.22;4434522;32;33269;-63
2022/10/25 11:28:37;;;;;;;5.25;2.97;;;;;;;19.11;60.75;99900.56;4429832;32;32302;-65
2022/10/25 11:31:13;;;;;;;7.43;3.08;;;;;;;19.07;60.78;99900.03;4448568;32;33682;-64
2022/10/25 11:33:41;;;;;;;9.85;3.80;;;;;;;19.67;59.39;99898.09;4446575;32;32596;-66
2022/10/25 11:36:17;;;;;;;4.43;2.25;;;;;;;19.72;59.60;99901.16;4447345;32;32215;-65
2022/10/25 11:39:16;;;;;;;5.62;2.85;;;;;;;19.49;59.58;99895.53;4444436;32;34039;-65
2022/10/25 11:41:48;;;;;;;4.62;2.30;;;;;;;19.99;58.19;99889.91;4437516;32;33809;-66
2022/10/25 11:44:37;;;;;;;2.80;1.42;;;;;;;20.04;56.81;99881.28;4438664;32;33682;-65
2022/10/25 11:47:37;;;;;;;3.60;1.83;;;;;;;19.68;56.87;99883.53;4441717;32;34390;-64
2022/10/25 11:50:14;;;;;;;1.70;1.12;;;;;;;19.68;56.48;99878.94;4445215;32;33548;-65
2022/10/25 11:52:57;;;;;;;2.97;1.10;;;;;;;19.33;55.66;99873.81;4447874;32;32966;-65